createdAt,value
2023-04-07T00:01:19.000Z,0
2023-04-07T00:02:50.000Z,0
2023-04-07T00:04:20.000Z,0
2023-04-07T00:05:51.000Z,0
2023-04-07T00:07:21.000Z,0
2023-04-07T00:08:52.000Z,0
2023-04-07T00:10:22.000Z,0
2023-04-07T00:11:53.000Z,0
2023-04-07T00:13:23.000Z,0
2023-04-07T00:14:40.000Z,0
2023-04-07T00:15:57.000Z,0
2023-04-07T00:17:28.000Z,0
2023-04-07T00:18:58.000Z,0
2023-04-07T00:20:29.000Z,0
2023-04-07T00:21:59.000Z,0
2023-04-07T00:23:30.000Z,0
2023-04-07T00:25:00.000Z,0
2023-04-07T00:26:31.000Z,0
2023-04-07T00:28:01.000Z,0
2023-04-07T00:29:32.000Z,0
2023-04-07T00:30:49.000Z,0
2023-04-07T00:32:06.000Z,0
2023-04-07T00:33:36.000Z,0
2023-04-07T00:35:07.000Z,0
2023-04-07T00:36:37.000Z,0
2023-04-07T00:38:08.000Z,0
2023-04-07T00:39:38.000Z,0
2023-04-07T00:41:09.000Z,0
2023-04-07T00:42:39.000Z,0
2023-04-07T00:44:10.000Z,0
2023-04-07T00:45:40.000Z,0
2023-04-07T00:46:57.000Z,0
2023-04-07T00:48:14.000Z,0
2023-04-07T00:49:45.000Z,0
2023-04-07T00:51:15.000Z,0
2023-04-07T00:52:46.000Z,0
2023-04-07T00:54:16.000Z,0
2023-04-07T00:55:47.000Z,0
2023-04-07T00:57:17.000Z,0
2023-04-07T00:58:48.000Z,0
2023-04-07T01:00:18.000Z,0
2023-04-07T01:01:49.000Z,0
2023-04-07T01:03:06.000Z,0
2023-04-07T01:04:23.000Z,0
2023-04-07T01:05:54.000Z,0
2023-04-07T01:07:24.000Z,0
2023-04-07T01:08:55.000Z,0
2023-04-07T01:10:25.000Z,0
2023-04-07T01:11:56.000Z,0
2023-04-07T01:13:26.000Z,0
2023-04-07T01:14:57.000Z,0
2023-04-07T01:16:27.000Z,0
2023-04-07T01:17:58.000Z,0
2023-04-07T01:19:15.000Z,0
2023-04-07T01:20:32.000Z,0
2023-04-07T01:22:02.000Z,0
2023-04-07T01:23:33.000Z,0
2023-04-07T01:25:03.000Z,0
2023-04-07T01:26:34.000Z,0
2023-04-07T01:28:04.000Z,0
2023-04-07T01:29:35.000Z,0
2023-04-07T01:31:05.000Z,0
2023-04-07T01:32:36.000Z,0
2023-04-07T01:34:06.000Z,0
2023-04-07T01:35:23.000Z,0
2023-04-07T01:36:40.000Z,0
2023-04-07T01:38:11.000Z,0
2023-04-07T01:39:50.000Z,0
2023-04-07T01:41:20.000Z,0
2023-04-07T01:42:51.000Z,0
2023-04-07T01:44:21.000Z,0
2023-04-07T01:45:52.000Z,0
2023-04-07T01:47:22.000Z,0
2023-04-07T01:48:53.000Z,0
2023-04-07T01:50:23.000Z,0
2023-04-07T01:51:40.000Z,0
2023-04-07T01:52:57.000Z,0
2023-04-07T01:54:28.000Z,0
2023-04-07T01:55:58.000Z,0
2023-04-07T01:57:29.000Z,0
2023-04-07T01:58:59.000Z,0
2023-04-07T02:00:30.000Z,0
2023-04-07T02:02:00.000Z,0
2023-04-07T02:03:31.000Z,0
2023-04-07T02:05:01.000Z,0
2023-04-07T02:06:32.000Z,0
2023-04-07T02:07:49.000Z,0
2023-04-07T02:09:06.000Z,0
2023-04-07T02:10:36.000Z,0
2023-04-07T02:12:07.000Z,0
2023-04-07T02:13:37.000Z,0
2023-04-07T02:15:08.000Z,0
2023-04-07T02:16:38.000Z,0
2023-04-07T02:18:09.000Z,0
2023-04-07T02:19:39.000Z,0
2023-04-07T02:21:10.000Z,0
2023-04-07T02:22:40.000Z,0
2023-04-07T02:23:57.000Z,0
2023-04-07T02:25:14.000Z,0
2023-04-07T02:26:45.000Z,0
2023-04-07T02:28:15.000Z,0
2023-04-07T02:29:46.000Z,0
2023-04-07T02:31:16.000Z,0
2023-04-07T02:32:47.000Z,0
2023-04-07T02:34:17.000Z,0
2023-04-07T02:35:48.000Z,0
2023-04-07T02:37:19.000Z,0
2023-04-07T02:38:49.000Z,0
2023-04-07T02:40:06.000Z,0
2023-04-07T02:41:23.000Z,0
2023-04-07T02:42:54.000Z,0
2023-04-07T02:44:24.000Z,0
2023-04-07T02:45:55.000Z,0
2023-04-07T02:47:25.000Z,0
2023-04-07T02:48:56.000Z,0
2023-04-07T02:50:26.000Z,0
2023-04-07T02:51:57.000Z,0
2023-04-07T02:53:27.000Z,0
2023-04-07T02:54:58.000Z,0
2023-04-07T02:56:14.000Z,0
2023-04-07T02:57:31.000Z,0
2023-04-07T02:59:02.000Z,0
2023-04-07T03:00:32.000Z,0
2023-04-07T03:02:03.000Z,0
2023-04-07T03:03:33.000Z,0
2023-04-07T03:05:04.000Z,0
2023-04-07T03:06:34.000Z,0
2023-04-07T03:08:05.000Z,0
2023-04-07T03:09:35.000Z,0
2023-04-07T03:11:06.000Z,0
2023-04-07T03:12:23.000Z,0
2023-04-07T03:13:40.000Z,0
2023-04-07T03:15:10.000Z,0
2023-04-07T03:16:41.000Z,0
2023-04-07T03:18:11.000Z,0
2023-04-07T03:19:42.000Z,0
2023-04-07T03:21:12.000Z,0
2023-04-07T03:22:43.000Z,0
2023-04-07T03:24:13.000Z,0
2023-04-07T03:25:44.000Z,0
2023-04-07T03:27:15.000Z,0
2023-04-07T03:28:32.000Z,0
2023-04-07T03:31:19.000Z,0
2023-04-07T03:32:50.000Z,0
2023-04-07T03:34:20.000Z,0
2023-04-07T03:37:21.000Z,0
2023-04-07T03:40:22.000Z,0
2023-04-07T03:41:53.000Z,0
2023-04-07T03:43:23.000Z,0
2023-04-07T03:44:40.000Z,0
2023-04-07T03:45:57.000Z,0
2023-04-07T03:47:28.000Z,0
2023-04-07T03:48:58.000Z,0
2023-04-07T03:50:29.000Z,0
2023-04-07T03:51:59.000Z,0
2023-04-07T03:53:30.000Z,0
2023-04-07T03:55:00.000Z,0
2023-04-07T03:56:31.000Z,0
2023-04-07T03:58:01.000Z,0
2023-04-07T03:59:32.000Z,0
2023-04-07T04:00:49.000Z,0
2023-04-07T04:02:06.000Z,0
2023-04-07T04:06:37.000Z,0
2023-04-07T04:11:09.000Z,0
2023-04-07T04:14:10.000Z,0
2023-04-07T04:15:40.000Z,0
2023-04-07T04:16:57.000Z,0
2023-04-07T04:21:16.000Z,0
2023-04-07T04:24:17.000Z,0
2023-04-07T04:25:47.000Z,0
2023-04-07T04:30:19.000Z,4
2023-04-07T04:33:06.000Z,4
2023-04-07T04:34:23.000Z,4
2023-04-07T04:35:54.000Z,8
2023-04-07T04:38:55.000Z,16
2023-04-07T04:40:25.000Z,24
2023-04-07T04:43:26.000Z,40
2023-04-07T04:46:27.000Z,64
2023-04-07T04:49:15.000Z,88
2023-04-07T04:50:32.000Z,108
2023-04-07T04:53:33.000Z,124
2023-04-07T04:55:03.000Z,136
2023-04-07T04:58:04.000Z,180
2023-04-07T04:59:35.000Z,204
2023-04-07T05:02:36.000Z,200
2023-04-07T05:04:06.000Z,248
2023-04-07T05:05:23.000Z,300
2023-04-07T05:09:41.000Z,480
2023-04-07T05:12:42.000Z,648
2023-04-07T05:14:13.000Z,672
2023-04-07T05:17:14.000Z,820
2023-04-07T05:18:44.000Z,876
2023-04-07T05:20:15.000Z,972
2023-04-07T05:22:49.000Z,1172
2023-04-07T05:24:19.000Z,1292
2023-04-07T05:27:20.000Z,1304
2023-04-07T05:28:51.000Z,1352
2023-04-07T05:30:21.000Z,1272
2023-04-07T05:31:52.000Z,1328
2023-04-07T05:33:22.000Z,1384
2023-04-07T05:34:53.000Z,1588
2023-04-07T05:36:23.000Z,1544
2023-04-07T05:37:40.000Z,1748
2023-04-07T05:38:57.000Z,1768
2023-04-07T05:40:28.000Z,1840
2023-04-07T05:41:58.000Z,1856
2023-04-07T05:43:29.000Z,2096
2023-04-07T05:44:59.000Z,2148
2023-04-07T05:46:30.000Z,2312
2023-04-07T05:51:01.000Z,2780
2023-04-07T05:52:32.000Z,2848
2023-04-07T05:58:07.000Z,2792
2023-04-07T05:59:37.000Z,2512
2023-04-07T06:01:08.000Z,2620
2023-04-07T06:04:09.000Z,2444
2023-04-07T06:05:39.000Z,2360
2023-04-07T06:07:10.000Z,2268
2023-04-07T06:09:58.000Z,2212
2023-04-07T06:11:15.000Z,2716
2023-04-07T06:12:45.000Z,3248
2023-04-07T06:14:16.000Z,3880
2023-04-07T06:17:17.000Z,3564
2023-04-07T06:20:18.000Z,3596
2023-04-07T06:21:48.000Z,3408
2023-04-07T06:24:49.000Z,3536
2023-04-07T06:27:23.000Z,3532
2023-04-07T06:28:53.000Z,3140
2023-04-07T06:31:54.000Z,3772
2023-04-07T06:35:03.000Z,4088
2023-04-07T06:36:34.000Z,3904
2023-04-07T06:38:13.000Z,3696
2023-04-07T06:39:43.000Z,3156
2023-04-07T06:41:11.000Z,2732
2023-04-07T06:42:28.000Z,2848
2023-04-07T06:45:29.000Z,2860
2023-04-07T06:46:59.000Z,2736
2023-04-07T06:48:30.000Z,2528
2023-04-07T06:50:00.000Z,2528
2023-04-07T06:51:31.000Z,2432
2023-04-07T06:54:32.000Z,3000
2023-04-07T06:56:02.000Z,3536
2023-04-07T06:57:19.000Z,3224
2023-04-07T06:58:36.000Z,3396
2023-04-07T07:00:07.000Z,3396
2023-04-07T07:01:37.000Z,3424
2023-04-07T07:03:08.000Z,3184
2023-04-07T07:04:38.000Z,3204
2023-04-07T07:06:09.000Z,3168
2023-04-07T07:07:39.000Z,2976
2023-04-07T07:09:10.000Z,2924
2023-04-07T07:10:40.000Z,3084
2023-04-07T07:12:11.000Z,3088
2023-04-07T07:14:45.000Z,3788
2023-04-07T07:16:15.000Z,3784
2023-04-07T07:17:46.000Z,3488
2023-04-07T07:19:16.000Z,3824
2023-04-07T07:20:47.000Z,3644
2023-04-07T07:22:17.000Z,3796
2023-04-07T07:23:48.000Z,3236
2023-04-07T07:25:18.000Z,3672
2023-04-07T07:28:19.000Z,4260
2023-04-07T07:30:53.000Z,4112
2023-04-07T07:32:24.000Z,3252
2023-04-07T07:33:54.000Z,3636
2023-04-07T07:35:25.000Z,3224
2023-04-07T07:38:26.000Z,3832
2023-04-07T07:41:27.000Z,3868
2023-04-07T07:42:57.000Z,4128
2023-04-07T07:44:28.000Z,3944
2023-04-07T07:50:03.000Z,4736
2023-04-07T07:51:33.000Z,4796
2023-04-07T07:53:04.000Z,5060
2023-04-07T07:54:34.000Z,5300
2023-04-07T07:56:05.000Z,5332
2023-04-07T07:57:35.000Z,5628
2023-04-07T07:59:06.000Z,6320
2023-04-07T08:00:36.000Z,6088
2023-04-07T08:01:53.000Z,6028
2023-04-07T08:03:10.000Z,7328
2023-04-07T08:04:41.000Z,7128
2023-04-07T08:07:42.000Z,7312
2023-04-07T08:09:12.000Z,7356
2023-04-07T08:10:43.000Z,7836
2023-04-07T08:13:44.000Z,7540
2023-04-07T08:16:45.000Z,10544
2023-04-07T08:18:02.000Z,10580
2023-04-07T08:19:19.000Z,11728
2023-04-07T08:22:20.000Z,12764
2023-04-07T08:26:51.000Z,12792
2023-04-07T08:28:22.000Z,12496
2023-04-07T08:31:23.000Z,14916
2023-04-07T08:32:53.000Z,16280
2023-04-07T08:34:10.000Z,16896
2023-04-07T08:35:27.000Z,18112
2023-04-07T08:36:58.000Z,19648
2023-04-07T08:38:28.000Z,18944
2023-04-07T08:41:29.000Z,17248
2023-04-07T08:47:31.000Z,11028
2023-04-07T08:50:19.000Z,9324
2023-04-07T08:51:36.000Z,14396
2023-04-07T08:53:06.000Z,15880
2023-04-07T08:56:07.000Z,15604
2023-04-07T08:57:38.000Z,17248
2023-04-07T09:00:39.000Z,18752
2023-04-07T09:02:09.000Z,21184
2023-04-07T09:15:17.000Z,20480
2023-04-07T09:16:47.000Z,20384
2023-04-07T09:21:19.000Z,19392
2023-04-07T09:22:36.000Z,19712
2023-04-07T09:25:23.000Z,22784
2023-04-07T09:31:26.000Z,27328
2023-04-07T09:38:45.000Z,32640
2023-04-07T09:46:03.000Z,27360
2023-04-07T09:50:35.000Z,26592
2023-04-07T09:53:36.000Z,24320
2023-04-07T10:03:42.000Z,18784
2023-04-07T10:05:13.000Z,21632
2023-04-07T10:08:14.000Z,26240
2023-04-07T10:21:22.000Z,24192
2023-04-07T10:22:52.000Z,25216
2023-04-07T10:24:23.000Z,25632
2023-04-07T10:25:53.000Z,27008
2023-04-07T10:28:27.000Z,28384
2023-04-07T10:29:58.000Z,30368
2023-04-07T10:31:28.000Z,34720
2023-04-07T10:32:59.000Z,36096
2023-04-07T10:34:29.000Z,36000
2023-04-07T10:37:30.000Z,31392
2023-04-07T10:39:01.000Z,32064
2023-04-07T10:42:02.000Z,24384
2023-04-07T10:43:18.000Z,25472
2023-04-07T10:44:35.000Z,29184
2023-04-07T10:46:06.000Z,32544
2023-04-07T10:47:36.000Z,31744
2023-04-07T10:49:07.000Z,26464
2023-04-07T10:53:38.000Z,27488
2023-04-07T10:56:39.000Z,28832
2023-04-07T10:58:10.000Z,29408
2023-04-07T10:59:27.000Z,30176
2023-04-07T11:00:44.000Z,29152
2023-04-07T11:02:14.000Z,25760
2023-04-07T11:03:45.000Z,23904
2023-04-07T11:05:16.000Z,21216
2023-04-07T11:06:46.000Z,16608
2023-04-07T11:08:17.000Z,17344
2023-04-07T11:09:47.000Z,20640
2023-04-07T11:11:18.000Z,22880
2023-04-07T11:12:48.000Z,20512
2023-04-07T11:14:19.000Z,20416
2023-04-07T11:15:36.000Z,18080
2023-04-07T11:16:53.000Z,15172
2023-04-07T11:18:23.000Z,18400
2023-04-07T11:19:54.000Z,20320
2023-04-07T11:21:24.000Z,20448
2023-04-07T11:22:55.000Z,19360
2023-04-07T11:24:25.000Z,20224
2023-04-07T11:25:56.000Z,22496
2023-04-07T11:27:26.000Z,24672
2023-04-07T11:28:57.000Z,27168
2023-04-07T11:30:27.000Z,29152
2023-04-07T11:31:44.000Z,29984
2023-04-07T11:33:01.000Z,30560
2023-04-07T11:34:31.000Z,31168
2023-04-07T11:36:02.000Z,31328
2023-04-07T11:37:32.000Z,31616
2023-04-07T11:39:03.000Z,32224
2023-04-07T11:40:33.000Z,31584
2023-04-07T11:42:04.000Z,30272
2023-04-07T11:43:34.000Z,29536
2023-04-07T11:45:05.000Z,31136
2023-04-07T11:46:35.000Z,34208
2023-04-07T11:48:06.000Z,34752
2023-04-07T11:49:23.000Z,33248
2023-04-07T11:50:40.000Z,33952
2023-04-07T11:52:11.000Z,38080
2023-04-07T11:53:41.000Z,42048
2023-04-07T11:55:12.000Z,41568
2023-04-07T11:56:42.000Z,37408
2023-04-07T11:58:13.000Z,32416
2023-04-07T11:59:43.000Z,27936
2023-04-07T12:01:14.000Z,26560
2023-04-07T12:02:44.000Z,21920
2023-04-07T12:04:15.000Z,17184
2023-04-07T12:05:32.000Z,14888
2023-04-07T12:06:49.000Z,15528
2023-04-07T12:08:19.000Z,15984
2023-04-07T12:09:50.000Z,15600
2023-04-07T12:11:20.000Z,20736
2023-04-07T12:14:21.000Z,25472
2023-04-07T12:15:52.000Z,27840
2023-04-07T12:17:22.000Z,32384
2023-04-07T12:20:23.000Z,37824
2023-04-07T12:21:40.000Z,39776
2023-04-07T12:22:57.000Z,42976
2023-04-07T12:24:27.000Z,44576
2023-04-07T12:25:58.000Z,46432
2023-04-07T12:27:28.000Z,46976
2023-04-07T12:28:59.000Z,46944
2023-04-07T12:30:29.000Z,47392
2023-04-07T12:33:30.000Z,46400
2023-04-07T12:36:31.000Z,46208
2023-04-07T12:37:48.000Z,47968
2023-04-07T12:39:05.000Z,49056
2023-04-07T12:40:36.000Z,51584
2023-04-07T12:42:06.000Z,53216
2023-04-07T12:43:37.000Z,53088
2023-04-07T12:45:07.000Z,52096
2023-04-07T12:46:38.000Z,49760
2023-04-07T12:48:08.000Z,47456
2023-04-07T12:49:39.000Z,46560
2023-04-07T12:51:09.000Z,46336
2023-04-07T12:52:40.000Z,45504
2023-04-07T12:53:56.000Z,44640
2023-04-07T12:55:13.000Z,44608
2023-04-07T12:56:44.000Z,45376
2023-04-07T12:58:14.000Z,43616
2023-04-07T12:59:45.000Z,37632
2023-04-07T13:01:15.000Z,31936
2023-04-07T13:02:46.000Z,26496
2023-04-07T13:04:16.000Z,21184
2023-04-07T13:07:17.000Z,21152
2023-04-07T13:08:48.000Z,18432
2023-04-07T13:11:22.000Z,15392
2023-04-07T13:12:52.000Z,13764
2023-04-07T13:14:23.000Z,12804
2023-04-07T13:15:53.000Z,13656
2023-04-07T13:17:24.000Z,14992
2023-04-07T13:18:54.000Z,18304
2023-04-07T13:20:25.000Z,21888
2023-04-07T13:21:55.000Z,24000
2023-04-07T13:23:26.000Z,23232
2023-04-07T13:26:13.000Z,19776
2023-04-07T13:27:30.000Z,17600
2023-04-07T13:29:01.000Z,15408
2023-04-07T13:30:31.000Z,14284
2023-04-07T13:32:02.000Z,13976
2023-04-07T13:33:32.000Z,12864
2023-04-07T13:35:03.000Z,12048
2023-04-07T13:36:33.000Z,12688
2023-04-07T13:38:04.000Z,14392
2023-04-07T13:39:34.000Z,15896
2023-04-07T13:41:05.000Z,17312
2023-04-07T13:43:39.000Z,19232
2023-04-07T13:45:10.000Z,20928
2023-04-07T13:46:40.000Z,23072
2023-04-07T13:48:11.000Z,24832
2023-04-07T13:49:41.000Z,26816
2023-04-07T13:51:12.000Z,29120
2023-04-07T13:52:42.000Z,32064
2023-04-07T13:54:13.000Z,35104
2023-04-07T13:55:43.000Z,36832
2023-04-07T13:57:14.000Z,37248
2023-04-07T13:58:30.000Z,36864
2023-04-07T13:59:47.000Z,37504
2023-04-07T14:01:18.000Z,39968
2023-04-07T14:02:48.000Z,51872
2023-04-07T14:04:19.000Z,58048
2023-04-07T14:05:49.000Z,44640
2023-04-07T14:07:20.000Z,34560
2023-04-07T14:08:50.000Z,32896
2023-04-07T14:10:21.000Z,32288
2023-04-07T14:11:51.000Z,31200
2023-04-07T14:13:22.000Z,29536
2023-04-07T14:14:39.000Z,29696
2023-04-07T14:15:56.000Z,30272
2023-04-07T14:17:26.000Z,31168
2023-04-07T14:18:57.000Z,32960
2023-04-07T14:20:27.000Z,33952
2023-04-07T14:21:58.000Z,34272
2023-04-07T14:23:28.000Z,34560
2023-04-07T14:24:59.000Z,34560
2023-04-07T14:26:29.000Z,34592
2023-04-07T14:28:00.000Z,34592
2023-04-07T14:29:30.000Z,33184
2023-04-07T14:30:47.000Z,32096
2023-04-07T14:32:04.000Z,31072
2023-04-07T14:33:35.000Z,30304
2023-04-07T14:35:06.000Z,29440
2023-04-07T14:36:36.000Z,27168
2023-04-07T14:38:07.000Z,24032
2023-04-07T14:39:37.000Z,22592
2023-04-07T14:41:08.000Z,23904
2023-04-07T14:42:38.000Z,24672
2023-04-07T14:44:09.000Z,24800
2023-04-07T14:45:39.000Z,24640
2023-04-07T14:46:56.000Z,24832
2023-04-07T14:48:13.000Z,25216
2023-04-07T14:49:44.000Z,25504
2023-04-07T14:51:14.000Z,25408
2023-04-07T14:52:45.000Z,24576
2023-04-07T14:54:15.000Z,23968
2023-04-07T14:55:46.000Z,23808
2023-04-07T14:57:16.000Z,23616
2023-04-07T14:58:47.000Z,23296
2023-04-07T15:00:17.000Z,22912
2023-04-07T15:01:48.000Z,22624
2023-04-07T15:03:05.000Z,22592
2023-04-07T15:04:22.000Z,22624
2023-04-07T15:05:52.000Z,22464
2023-04-07T15:07:23.000Z,22368
2023-04-07T15:08:53.000Z,22720
2023-04-07T15:10:24.000Z,23200
2023-04-07T15:11:54.000Z,23488
2023-04-07T15:13:25.000Z,23584
2023-04-07T15:14:55.000Z,23808
2023-04-07T15:16:26.000Z,24480
2023-04-07T15:17:56.000Z,25760
2023-04-07T15:19:13.000Z,26816
2023-04-07T15:20:30.000Z,25632
2023-04-07T15:22:01.000Z,24608
2023-04-07T15:23:31.000Z,25152
2023-04-07T15:25:02.000Z,25184
2023-04-07T15:26:32.000Z,26944
2023-04-07T15:28:03.000Z,25248
2023-04-07T15:29:33.000Z,24416
2023-04-07T15:32:34.000Z,21984
2023-04-07T15:34:05.000Z,20352
2023-04-07T15:35:22.000Z,17408
2023-04-07T15:36:39.000Z,15676
2023-04-07T15:38:10.000Z,15048
2023-04-07T15:39:40.000Z,14304
2023-04-07T15:41:11.000Z,14432
2023-04-07T15:42:41.000Z,15840
2023-04-07T15:44:12.000Z,17248
2023-04-07T15:45:42.000Z,16736
2023-04-07T15:47:13.000Z,15448
2023-04-07T15:48:43.000Z,14764
2023-04-07T15:50:14.000Z,14540
2023-04-07T15:51:31.000Z,14312
2023-04-07T15:52:47.000Z,14048
2023-04-07T15:54:18.000Z,13912
2023-04-07T15:55:48.000Z,13804
2023-04-07T15:57:19.000Z,13576
2023-04-07T15:58:49.000Z,13228
2023-04-07T16:00:20.000Z,13212
2023-04-07T16:01:50.000Z,13252
2023-04-07T16:03:21.000Z,13124
2023-04-07T16:04:51.000Z,12860
2023-04-07T16:06:22.000Z,12300
2023-04-07T16:07:39.000Z,11608
2023-04-07T16:08:56.000Z,11900
2023-04-07T16:10:26.000Z,11632
2023-04-07T16:11:57.000Z,11284
2023-04-07T16:13:27.000Z,11016
2023-04-07T16:14:58.000Z,10776
2023-04-07T16:16:28.000Z,10544
2023-04-07T16:17:59.000Z,10364
2023-04-07T16:19:29.000Z,10320
2023-04-07T16:21:00.000Z,10316
2023-04-07T16:22:30.000Z,10232
2023-04-07T16:23:48.000Z,10016
2023-04-07T16:25:05.000Z,9716
2023-04-07T16:26:35.000Z,9336
2023-04-07T16:28:14.000Z,8868
2023-04-07T16:29:44.000Z,8340
2023-04-07T16:31:15.000Z,7824
2023-04-07T16:32:45.000Z,7344
2023-04-07T16:34:16.000Z,7168
2023-04-07T16:35:46.000Z,7276
2023-04-07T16:37:17.000Z,7384
2023-04-07T16:38:47.000Z,7256
2023-04-07T16:40:04.000Z,6816
2023-04-07T16:41:21.000Z,6224
2023-04-07T16:42:52.000Z,5524
2023-04-07T16:44:22.000Z,4904
2023-04-07T16:45:53.000Z,4472
2023-04-07T16:47:23.000Z,4280
2023-04-07T16:48:54.000Z,4248
2023-04-07T16:50:24.000Z,4336
2023-04-07T16:51:55.000Z,4476
2023-04-07T16:53:25.000Z,4488
2023-04-07T16:54:56.000Z,4332
2023-04-07T16:56:13.000Z,4052
2023-04-07T16:57:30.000Z,3788
2023-04-07T16:59:01.000Z,3636
2023-04-07T17:00:31.000Z,3672
2023-04-07T17:02:02.000Z,3876
2023-04-07T17:03:32.000Z,4056
2023-04-07T17:05:03.000Z,4132
2023-04-07T17:06:33.000Z,3964
2023-04-07T17:08:04.000Z,3500
2023-04-07T17:09:34.000Z,2964
2023-04-07T17:11:05.000Z,2532
2023-04-07T17:12:22.000Z,2288
2023-04-07T17:15:09.000Z,2200
2023-04-07T17:16:40.000Z,2212
2023-04-07T17:18:10.000Z,2292
2023-04-07T17:19:41.000Z,2312
2023-04-07T17:21:11.000Z,2236
2023-04-07T17:22:42.000Z,2164
2023-04-07T17:24:12.000Z,2032
2023-04-07T17:25:43.000Z,1840
2023-04-07T17:27:13.000Z,1652
2023-04-07T17:28:30.000Z,1568
2023-04-07T17:29:47.000Z,1568
2023-04-07T17:31:18.000Z,1588
2023-04-07T17:32:48.000Z,1584
2023-04-07T17:34:19.000Z,1528
2023-04-07T17:35:49.000Z,1448
2023-04-07T17:37:20.000Z,1360
2023-04-07T17:38:50.000Z,1280
2023-04-07T17:40:21.000Z,1208
2023-04-07T17:41:51.000Z,1144
2023-04-07T17:43:22.000Z,1068
2023-04-07T17:44:39.000Z,996
2023-04-07T17:45:56.000Z,948
2023-04-07T17:47:26.000Z,920
2023-04-07T17:48:57.000Z,876
2023-04-07T17:50:27.000Z,828
2023-04-07T17:51:58.000Z,764
2023-04-07T17:53:29.000Z,692
2023-04-07T17:54:59.000Z,624
2023-04-07T17:56:30.000Z,556
2023-04-07T17:58:00.000Z,500
2023-04-07T17:59:31.000Z,432
2023-04-07T18:00:48.000Z,376
2023-04-07T18:02:05.000Z,336
2023-04-07T18:03:35.000Z,296
2023-04-07T18:05:06.000Z,260
2023-04-07T18:06:36.000Z,224
2023-04-07T18:08:07.000Z,200
2023-04-07T18:09:37.000Z,176
2023-04-07T18:11:08.000Z,156
2023-04-07T18:12:38.000Z,136
2023-04-07T18:14:09.000Z,112
2023-04-07T18:15:39.000Z,96
2023-04-07T18:16:56.000Z,76
2023-04-07T18:18:13.000Z,64
2023-04-07T18:19:44.000Z,52
2023-04-07T18:21:14.000Z,44
2023-04-07T18:22:45.000Z,32
2023-04-07T18:24:15.000Z,28
2023-04-07T18:25:46.000Z,20
2023-04-07T18:27:16.000Z,16
2023-04-07T18:28:47.000Z,12
2023-04-07T18:30:17.000Z,8
2023-04-07T18:31:48.000Z,8
2023-04-07T18:33:05.000Z,4
2023-04-07T18:34:22.000Z,4
2023-04-07T18:35:52.000Z,4
2023-04-07T18:37:23.000Z,4
2023-04-07T18:38:53.000Z,4
2023-04-07T18:40:24.000Z,0
2023-04-07T18:41:54.000Z,4
2023-04-07T18:43:25.000Z,0
2023-04-07T18:44:55.000Z,0
2023-04-07T18:47:56.000Z,0
2023-04-07T18:49:14.000Z,0
2023-04-07T18:50:31.000Z,0
2023-04-07T18:52:01.000Z,0
2023-04-07T18:53:32.000Z,0
2023-04-07T18:55:02.000Z,0
2023-04-07T18:56:33.000Z,0
2023-04-07T18:58:03.000Z,0
2023-04-07T18:59:34.000Z,0
2023-04-07T19:01:04.000Z,0
2023-04-07T19:02:35.000Z,0
2023-04-07T19:04:05.000Z,0
2023-04-07T19:05:22.000Z,0
2023-04-07T19:06:39.000Z,0
2023-04-07T19:08:09.000Z,0
2023-04-07T19:09:40.000Z,0
2023-04-07T19:11:10.000Z,0
2023-04-07T19:12:41.000Z,0
2023-04-07T19:14:11.000Z,0
2023-04-07T19:15:42.000Z,0
2023-04-07T19:17:12.000Z,0
2023-04-07T19:18:43.000Z,0
2023-04-07T19:20:13.000Z,0
2023-04-07T19:21:30.000Z,0
2023-04-07T19:22:47.000Z,0
2023-04-07T19:24:18.000Z,0
2023-04-07T19:25:48.000Z,0
2023-04-07T19:27:19.000Z,0
2023-04-07T19:28:49.000Z,0
2023-04-07T19:30:20.000Z,0
2023-04-07T19:31:50.000Z,0
2023-04-07T19:33:21.000Z,0
2023-04-07T19:34:51.000Z,0
2023-04-07T19:36:22.000Z,0
2023-04-07T19:37:39.000Z,0
2023-04-07T19:38:56.000Z,0
2023-04-07T19:40:27.000Z,0
2023-04-07T19:41:57.000Z,0
2023-04-07T19:43:28.000Z,0
2023-04-07T19:44:58.000Z,0
2023-04-07T19:46:29.000Z,0
2023-04-07T19:47:59.000Z,0
2023-04-07T19:49:30.000Z,0
2023-04-07T19:51:00.000Z,0
2023-04-07T19:52:31.000Z,0
2023-04-07T19:53:48.000Z,0
2023-04-07T19:55:05.000Z,0
2023-04-07T19:56:35.000Z,0
2023-04-07T19:58:06.000Z,0
2023-04-07T19:59:36.000Z,0
2023-04-07T20:01:07.000Z,0
2023-04-07T20:02:37.000Z,0
2023-04-07T20:04:08.000Z,0
2023-04-07T20:05:38.000Z,0
2023-04-07T20:07:09.000Z,0
2023-04-07T20:08:39.000Z,0
2023-04-07T20:09:56.000Z,0
2023-04-07T20:11:13.000Z,0
2023-04-07T20:12:44.000Z,0
2023-04-07T20:14:14.000Z,0
2023-04-07T20:15:45.000Z,0
2023-04-07T20:17:15.000Z,0
2023-04-07T20:18:46.000Z,0
2023-04-07T20:20:16.000Z,0
2023-04-07T20:21:47.000Z,0
2023-04-07T20:23:17.000Z,0
2023-04-07T20:24:48.000Z,0
2023-04-07T20:26:05.000Z,0
2023-04-07T20:27:22.000Z,0
2023-04-07T20:28:52.000Z,0
2023-04-07T20:30:23.000Z,0
2023-04-07T20:31:53.000Z,0
2023-04-07T20:33:24.000Z,0
2023-04-07T20:34:55.000Z,0
2023-04-07T20:36:25.000Z,0
2023-04-07T20:37:56.000Z,0
2023-04-07T20:39:26.000Z,0
2023-04-07T20:40:57.000Z,0
2023-04-07T20:42:14.000Z,0
2023-04-07T20:43:30.000Z,0
2023-04-07T20:45:01.000Z,0
2023-04-07T20:46:31.000Z,0
2023-04-07T20:48:02.000Z,0
2023-04-07T20:49:32.000Z,0
2023-04-07T20:51:03.000Z,0
2023-04-07T20:52:33.000Z,0
2023-04-07T20:54:04.000Z,0
2023-04-07T20:55:34.000Z,0
2023-04-07T20:57:05.000Z,0
2023-04-07T20:58:22.000Z,0
2023-04-07T20:59:39.000Z,0
2023-04-07T21:01:09.000Z,0
2023-04-07T21:02:40.000Z,0
2023-04-07T21:04:10.000Z,0
2023-04-07T21:05:41.000Z,0
2023-04-07T21:07:11.000Z,0
2023-04-07T21:08:42.000Z,0
2023-04-07T21:10:12.000Z,0
2023-04-07T21:11:43.000Z,0
2023-04-07T21:13:13.000Z,0
2023-04-07T21:14:30.000Z,0
2023-04-07T21:15:47.000Z,0
2023-04-07T21:17:18.000Z,0
2023-04-07T21:18:48.000Z,0
2023-04-07T21:20:19.000Z,0
2023-04-07T21:21:50.000Z,0
2023-04-07T21:23:28.000Z,0
2023-04-07T21:24:59.000Z,0
2023-04-07T21:26:29.000Z,0
2023-04-07T21:28:00.000Z,0
2023-04-07T21:29:30.000Z,0
2023-04-07T21:30:47.000Z,0
2023-04-07T21:32:04.000Z,0
2023-04-07T21:33:35.000Z,0
2023-04-07T21:35:05.000Z,0
2023-04-07T21:36:36.000Z,0
2023-04-07T21:38:06.000Z,0
2023-04-07T21:39:37.000Z,0
2023-04-07T21:41:07.000Z,0
2023-04-07T21:42:38.000Z,0
2023-04-07T21:44:08.000Z,0
2023-04-07T21:45:39.000Z,0
2023-04-07T21:46:56.000Z,0
2023-04-07T21:48:13.000Z,0
2023-04-07T21:49:43.000Z,0
2023-04-07T21:51:14.000Z,0
2023-04-07T21:52:44.000Z,0
2023-04-07T21:54:15.000Z,0
2023-04-07T21:55:45.000Z,0
2023-04-07T21:57:16.000Z,0
2023-04-07T21:58:46.000Z,0
2023-04-07T22:00:17.000Z,0
2023-04-07T22:01:48.000Z,0
2023-04-07T22:03:05.000Z,0
2023-04-07T22:04:22.000Z,0
2023-04-07T22:05:52.000Z,0
2023-04-07T22:07:23.000Z,0
2023-04-07T22:08:53.000Z,0
2023-04-07T22:10:24.000Z,0
2023-04-07T22:11:54.000Z,0
2023-04-07T22:13:25.000Z,0
2023-04-07T22:14:55.000Z,0
2023-04-07T22:16:26.000Z,0
2023-04-07T22:17:56.000Z,0
2023-04-07T22:19:13.000Z,0
2023-04-07T22:20:30.000Z,0
2023-04-07T22:22:00.000Z,0
2023-04-07T22:23:31.000Z,0
2023-04-07T22:25:01.000Z,0
2023-04-07T22:26:32.000Z,0
2023-04-07T22:28:02.000Z,0
2023-04-07T22:29:33.000Z,0
2023-04-07T22:31:03.000Z,0
2023-04-07T22:32:34.000Z,0
2023-04-07T22:34:04.000Z,0
2023-04-07T22:35:21.000Z,0
2023-04-07T22:36:38.000Z,0
2023-04-07T22:38:09.000Z,0
2023-04-07T22:39:39.000Z,0
2023-04-07T22:41:10.000Z,0
2023-04-07T22:42:40.000Z,0
2023-04-07T22:44:11.000Z,0
2023-04-07T22:45:41.000Z,0
2023-04-07T22:47:12.000Z,0
2023-04-07T22:48:42.000Z,0
2023-04-07T22:50:13.000Z,0
2023-04-07T22:51:30.000Z,0
2023-04-07T22:52:47.000Z,0
2023-04-07T22:54:18.000Z,0
2023-04-07T22:55:48.000Z,0
2023-04-07T22:57:19.000Z,0
2023-04-07T22:58:49.000Z,0
2023-04-07T23:00:20.000Z,0
2023-04-07T23:01:50.000Z,0
2023-04-07T23:03:21.000Z,0
2023-04-07T23:04:51.000Z,0
2023-04-07T23:06:22.000Z,0
2023-04-07T23:07:39.000Z,0
2023-04-07T23:08:56.000Z,0
2023-04-07T23:10:26.000Z,0
2023-04-07T23:11:57.000Z,0
2023-04-07T23:13:27.000Z,0
2023-04-07T23:14:58.000Z,0